Salt Lake City, Utah
Traffic Map
Current Weather Conditions
Salt Lake City, Utah
Few Clouds
Few Clouds
66°
Feels Like: 66°
Wind Chill: 66° Ceiling: Unl
Heat Index: 66° Visibility: 10mi
Dew Point: 31° Wind: 10mph
Humidity: 27% Direction: 310° (NW)
Pressure: 29.98in Gusts: 0mph
Raw Report DataKSLC 182253Z 31009KT 10SM FEW080 19/M01 A2998 RMK AO2 SLP126 T01891006
Traffic Incident Summary
Active as of:
Severity:
Category:
InformationThere was an issue retrieving the traffic information for this location. Please try a different location or try again shortly.
Advertisements
Track Severe Weather on mobile